Saturday, April 30, 2016
07:12 UTC
  |  Log In   |  Register Free
Airport Search:

South Big Horn County Airport
(KGEY)

South Big Horn County Airport Diagram
No Airport Diagram Available

FAA data valid effective Mar 31 2016 - May 26 2016 (unless otherwise noted).

 
 
 
 
 
 
 
 
 
 
 
 
 
 
Current Aviation Weather for KGEY

Weather Summary


Current weather conditions are not available for GEY - The nearest NOAA weather station is at U68, (28.3 nm NW from GEY)

The most recent METAR observation for GEY was updated at: 12:53 UTC
METAR for KGEY is not available. Closest METAR is for KU68
KGEY  (most recent observation was updatred at 30:06 UTC)
300653Z AUTO 31005KT 10SM OVC070 08/02 A2998 RMK AO2 SLP151 T00780017 401170044 $

KU68  (28.3 nm SE)   (most recent observation was updated at 30:06 UTC)
300655Z AUTO 03006KT 10SM OVC060 07/00 A2999 RMK AO2

KWRL  (33.8 nm NW)   (most recent observation was updated at 30:06 UTC)
300653Z AUTO 24003KT 10SM OVC065 06/03 A2998 RMK AO2 SLP155 T00560033 400940033

TAF for KGEY is not available.
KWRL  (33.8 nm NW)   (most recent observation was updatred at 30:05 UTC)
300532Z 3006/0106 VRB06KT P6SM VCSH SCT028 OVC040 FM301600 VRB05KT 6SM -RA BR SCT015 OVC024 FM010100 VRB05KT P6SM SCT026 OVC035


GlobalAir.com is loading additional information.
 Current Weather at GEY
47.0 F° (8.3 C°)

Northwest winds at 6.9 mph
Pressure:
29.97 in
Humidity:
61%
Wind:
Northwest at 6.9 mph
Dew Point:
34.0 F° (1.1 C°)
Visibility:
10.00 mi
GEY NOAA Radar




Find All Airport Services Find A Hotel Find A Rental Car Find A Golf Course Find A Restaurant $100 Hamburger



Airport Weather Forecast for KGEY

Translated METAR for KGEY (0653 UTC)
METAR:
KGEY 300653Z AUTO 31005KT 10SM OVC070 08/02 A2998 RMK AO2 SLP151 T00780017 401170044 $
Conditions at:
KGEY (South Big Horn County, WY) observed 0653 UTC 30 April 2016
Temperature:
8°C (46.4°F)
Dewpoint:
2°C (35.6°F) [RH = 65.8]
Pressure:
29.98 inches Hg (1015.2 mb)
pressure at sea level is 151 in Hg
Winds:
from the NW (310 degrees) at 5.8 mph (5 knots: 2.6 m/s)
Visibility:
10 mile(s)
Ceiling:
7,000 feet AGL
Clouds:
Overcast Skies at 7,000 feet AGL
Remarks:
site is un-manned
SOME DATA ABOVE MAY BE INACCURATE!!!
"$" is an indication the sensor requires maintenance
site is automated and HAS a precipitation sensor

FBO's on the Field
FBO Company Facility Photos Services Transportation Aviation Fuel Prices: Prices include tax
Catering Weather Repair Courtesy Rental Type 100LL JetA JetA+ MOGAS 8087
 
B & G Industries, LLC

This FBO has not yet been rated
FS:Independent
Last Updated: Mar-25
Login to update fuel prices
SS:
Contact B & G Industries, LLCMore FBO Information
 
South Big Horn County Airport

This FBO has not yet been rated
FS:Phillips 66
Last Updated: Apr-22
Login to update fuel prices
SS:
Contact South Big Horn County AirportMore FBO Information
 
Add another FBO Facility Photos Catering Weather Repair Courtesy Rental Type 100LL JetA JetA+ MOGAS 8087
Services Transportation Aviation Fuel Prices: Prices include tax


model-print
model-print
model-print
model-print